createdAt,value
2023-04-17T00:01:44.095Z,100968.00
2023-04-17T00:04:13.084Z,100970.00
2023-04-17T00:06:43.540Z,100972.00
2023-04-17T00:09:12.080Z,100972.00
2023-04-17T00:11:39.542Z,100957.00
2023-04-17T00:14:06.724Z,100970.00
2023-04-17T00:16:33.701Z,100966.00
2023-04-17T00:19:00.596Z,100974.00
2023-04-17T00:21:29.843Z,100972.00
2023-04-17T00:23:56.998Z,100970.00
2023-04-17T00:26:24.386Z,100957.00
2023-04-17T00:28:51.927Z,100971.00
2023-04-17T00:31:19.105Z,100957.00
2023-04-17T00:33:46.467Z,100970.00
2023-04-17T00:36:13.894Z,100973.00
2023-04-17T00:38:41.352Z,100966.00
2023-04-17T00:41:08.286Z,100961.00
2023-04-17T00:43:35.345Z,100953.00
2023-04-17T00:46:03.594Z,100946.00
2023-04-17T00:48:30.979Z,100963.00
2023-04-17T00:51:02.229Z,100958.00
2023-04-17T00:53:31.751Z,100966.00
2023-04-17T00:56:06.533Z,100933.00
2023-04-17T00:58:35.940Z,100946.00
2023-04-17T01:01:04.309Z,100964.00
2023-04-17T01:03:33.337Z,100964.00
2023-04-17T01:06:00.463Z,100964.00
2023-04-17T01:08:27.950Z,100963.00
2023-04-17T01:10:55.088Z,100961.00
2023-04-17T01:13:22.058Z,100959.00
2023-04-17T01:15:48.992Z,100967.00
2023-04-17T01:18:16.502Z,100969.00
2023-04-17T01:20:43.487Z,100974.00
2023-04-17T01:23:11.535Z,100960.00
2023-04-17T01:25:38.566Z,100965.00
2023-04-17T01:28:05.614Z,100971.00
2023-04-17T01:30:32.688Z,100965.00
2023-04-17T01:32:59.621Z,100966.00
2023-04-17T01:35:26.578Z,100970.00
2023-04-17T01:37:53.464Z,100975.00
2023-04-17T01:40:20.546Z,100963.00
2023-04-17T01:42:47.490Z,100968.00
2023-04-17T01:45:14.388Z,100964.00
2023-04-17T01:47:41.455Z,100955.00
2023-04-17T01:50:11.524Z,100962.00
2023-04-17T01:52:39.860Z,100954.00
2023-04-17T01:55:07.418Z,100964.00
2023-04-17T01:57:34.342Z,100969.00
2023-04-17T02:00:01.203Z,100970.00
2023-04-17T02:02:28.171Z,100974.00
2023-04-17T02:04:55.190Z,100977.00
2023-04-17T02:07:22.049Z,100971.00
2023-04-17T02:09:48.972Z,100973.00
2023-04-17T02:12:16.319Z,100973.00
2023-04-17T02:14:43.284Z,100985.00
2023-04-17T02:17:10.277Z,100982.00
2023-04-17T02:19:37.150Z,100988.00
2023-04-17T02:22:04.286Z,100978.00
2023-04-17T02:24:31.785Z,100987.00
2023-04-17T02:26:58.666Z,100985.00
2023-04-17T02:29:25.522Z,100981.00
2023-04-17T02:31:52.446Z,100983.00
2023-04-17T02:34:19.333Z,100990.00
2023-04-17T02:36:46.210Z,100995.00
2023-04-17T02:39:13.280Z,100989.00
2023-04-17T02:41:40.311Z,100995.00
2023-04-17T02:44:07.153Z,101007.00
2023-04-17T02:46:34.095Z,100995.00
2023-04-17T02:49:00.970Z,100994.00
2023-04-17T02:51:27.904Z,100994.00
2023-04-17T02:53:54.806Z,100998.00
2023-04-17T02:56:21.663Z,100998.00
2023-04-17T02:58:48.540Z,100999.00
2023-04-17T03:01:15.516Z,101004.00
2023-04-17T03:03:43.064Z,100964.00
2023-04-17T03:06:10.309Z,101006.00
2023-04-17T03:08:38.381Z,101008.00
2023-04-17T03:11:06.578Z,101009.00
2023-04-17T03:13:36.965Z,101012.00
2023-04-17T03:16:05.094Z,101005.00
2023-04-17T03:18:32.450Z,101007.00
2023-04-17T03:20:59.385Z,101010.00
2023-04-17T03:23:26.435Z,101009.00
2023-04-17T03:25:53.586Z,101014.00
2023-04-17T03:28:21.977Z,101019.00
2023-04-17T03:30:49.437Z,101012.00
2023-04-17T03:33:17.210Z,101013.00
2023-04-17T03:35:46.526Z,101014.00
2023-04-17T03:38:13.456Z,101010.00
2023-04-17T03:40:40.773Z,101014.00
2023-04-17T03:43:07.871Z,101009.00
2023-04-17T03:45:35.008Z,101009.00
2023-04-17T03:48:02.366Z,101010.00
2023-04-17T03:50:29.351Z,101013.00
2023-04-17T03:52:59.016Z,101018.00
2023-04-17T03:55:26.000Z,101022.00
2023-04-17T03:57:52.900Z,101019.00
2023-04-17T04:00:21.787Z,101020.00
2023-04-17T04:02:49.336Z,100991.00
2023-04-17T04:05:16.548Z,101023.00
2023-04-17T04:07:43.528Z,101020.00
2023-04-17T04:10:11.150Z,101022.00
2023-04-17T04:12:37.987Z,101024.00
2023-04-17T04:15:05.782Z,101024.00
2023-04-17T04:17:32.763Z,101021.00
2023-04-17T04:19:59.942Z,101019.00
2023-04-17T04:22:29.148Z,101020.00
2023-04-17T04:24:56.219Z,101030.00
2023-04-17T04:27:23.124Z,101024.00
2023-04-17T04:29:50.273Z,101023.00
2023-04-17T04:32:17.336Z,101026.00
2023-04-17T04:34:44.743Z,101030.00
2023-04-17T04:37:15.646Z,101022.00
2023-04-17T04:39:43.254Z,101030.00
2023-04-17T04:42:10.412Z,101036.00
2023-04-17T04:44:37.487Z,101039.00
2023-04-17T04:47:04.597Z,101039.00
2023-04-17T04:49:31.490Z,101031.00
2023-04-17T04:51:58.400Z,101035.00
2023-04-17T04:54:25.504Z,101051.00
2023-04-17T04:56:52.383Z,101033.00
2023-04-17T04:59:19.247Z,101038.00
2023-04-17T05:01:46.436Z,101044.00
2023-04-17T05:04:13.412Z,101036.00
2023-04-17T05:06:41.017Z,101050.00
2023-04-17T05:09:07.994Z,101048.00
2023-04-17T05:11:35.097Z,101049.00
2023-04-17T05:14:04.380Z,101059.00
2023-04-17T05:16:31.337Z,101056.00
2023-04-17T05:18:58.291Z,101049.00
2023-04-17T05:21:25.811Z,101055.00
2023-04-17T05:23:52.735Z,101034.00
2023-04-17T05:26:22.201Z,101051.00
2023-04-17T05:28:49.167Z,101055.00
2023-04-17T05:31:16.861Z,101062.00
2023-04-17T05:33:43.879Z,101068.00
2023-04-17T05:36:10.861Z,101061.00
2023-04-17T05:38:37.862Z,101070.00
2023-04-17T05:41:07.503Z,101064.00
2023-04-17T05:43:34.910Z,101069.00
2023-04-17T05:46:02.596Z,101074.00
2023-04-17T05:48:30.159Z,101075.00
2023-04-17T05:50:57.298Z,101072.00
2023-04-17T05:53:24.240Z,101078.00
2023-04-17T05:55:51.114Z,101078.00
2023-04-17T05:58:23.552Z,101078.00
2023-04-17T06:00:52.788Z,101078.00
2023-04-17T06:03:21.053Z,101079.00
2023-04-17T06:05:48.403Z,101086.00
2023-04-17T06:08:15.586Z,101090.00
2023-04-17T06:10:45.692Z,101092.00
2023-04-17T06:13:12.846Z,101095.00
2023-04-17T06:15:39.711Z,101096.00
2023-04-17T06:18:06.776Z,101091.00
2023-04-17T06:20:33.734Z,101095.00
2023-04-17T06:23:01.303Z,101104.00
2023-04-17T06:25:28.208Z,101104.00
2023-04-17T06:27:55.160Z,101099.00
2023-04-17T06:30:22.057Z,101100.00
2023-04-17T06:32:48.932Z,101099.00
2023-04-17T06:35:16.164Z,101103.00
2023-04-17T06:37:43.150Z,101106.00
2023-04-17T06:40:12.399Z,101115.00
2023-04-17T06:42:39.347Z,101110.00
2023-04-17T06:45:07.087Z,101121.00
2023-04-17T06:47:34.042Z,101117.00
2023-04-17T06:50:00.903Z,101134.00
2023-04-17T06:52:27.801Z,101125.00
2023-04-17T06:54:56.053Z,101132.00
2023-04-17T06:57:22.993Z,101126.00
2023-04-17T06:59:49.889Z,101127.00
2023-04-17T07:02:17.430Z,101130.00
2023-04-17T07:04:44.545Z,101135.00
2023-04-17T07:07:11.937Z,101140.00
2023-04-17T07:09:39.084Z,101144.00
2023-04-17T07:12:06.076Z,101151.00
2023-04-17T07:14:33.603Z,101146.00
2023-04-17T07:17:00.633Z,101151.00
2023-04-17T07:19:27.511Z,101150.00
2023-04-17T07:21:54.433Z,101166.00
2023-04-17T07:24:21.385Z,101162.00
2023-04-17T07:26:49.533Z,101163.00
2023-04-17T07:29:16.770Z,101167.00
2023-04-17T07:31:44.373Z,101150.00
2023-04-17T07:34:11.443Z,101190.00
2023-04-17T07:36:38.386Z,101184.00
2023-04-17T07:39:06.515Z,101190.00
2023-04-17T07:41:33.501Z,101186.00
2023-04-17T07:44:03.289Z,101190.00
2023-04-17T07:46:30.432Z,101192.00
2023-04-17T07:48:57.668Z,101200.00
2023-04-17T07:51:24.692Z,101202.00
2023-04-17T07:53:51.694Z,101204.00
2023-04-17T07:56:18.588Z,101209.00
2023-04-17T07:58:45.470Z,101212.00
2023-04-17T08:01:12.934Z,101207.00
2023-04-17T08:03:41.873Z,101221.00
2023-04-17T08:06:09.064Z,101221.00
2023-04-17T08:08:36.287Z,101216.00
2023-04-17T08:11:03.878Z,101214.00
2023-04-17T08:13:32.243Z,101212.00
2023-04-17T08:15:59.628Z,101217.00
2023-04-17T08:18:26.545Z,101230.00
2023-04-17T08:20:53.831Z,101224.00
2023-04-17T08:23:21.086Z,101231.00
2023-04-17T08:25:48.151Z,101238.00
2023-04-17T08:28:15.073Z,101237.00
2023-04-17T08:30:42.181Z,101212.00
2023-04-17T08:33:09.079Z,101246.00
2023-04-17T08:35:35.971Z,101252.00
2023-04-17T08:38:02.877Z,101240.00
2023-04-17T08:40:30.005Z,101242.00
2023-04-17T08:42:58.517Z,101255.00
2023-04-17T08:45:25.740Z,101242.00
2023-04-17T08:47:52.768Z,101244.00
2023-04-17T08:50:22.005Z,101249.00
2023-04-17T08:52:51.367Z,101238.00
2023-04-17T08:55:25.447Z,101251.00
2023-04-17T08:58:04.611Z,101262.00
2023-04-17T09:00:38.595Z,101257.00
2023-04-17T09:03:13.275Z,101258.00
2023-04-17T09:05:43.763Z,101266.00
2023-04-17T09:08:24.089Z,101268.00
2023-04-17T09:10:55.884Z,101276.00
2023-04-17T09:13:25.389Z,101274.00
2023-04-17T09:16:06.200Z,101276.00
2023-04-17T09:18:34.775Z,101250.00
2023-04-17T09:21:04.722Z,101268.00
2023-04-17T09:23:55.473Z,101278.00
2023-04-17T09:26:24.777Z,101277.00
2023-04-17T09:29:12.075Z,101279.00
2023-04-17T09:31:43.659Z,101280.00
2023-04-17T09:34:12.863Z,101284.00
2023-04-17T09:36:43.632Z,101293.00
2023-04-17T09:39:20.702Z,101291.00
2023-04-17T09:41:48.036Z,101292.00
2023-04-17T09:44:30.150Z,101286.00
2023-04-17T09:46:58.854Z,101259.00
2023-04-17T09:49:44.875Z,101292.00
2023-04-17T09:52:13.291Z,101293.00
2023-04-17T09:54:41.985Z,101296.00
2023-04-17T09:57:10.977Z,101297.00
2023-04-17T09:59:45.193Z,101294.00
2023-04-17T10:02:14.774Z,101295.00
2023-04-17T10:04:46.432Z,101300.00
2023-04-17T10:07:14.475Z,101297.00
2023-04-17T10:09:45.537Z,101304.00
2023-04-17T10:12:18.684Z,101293.00
2023-04-17T10:14:48.767Z,101293.00
2023-04-17T10:17:37.113Z,101303.00
2023-04-17T10:20:19.989Z,101306.00
2023-04-17T10:22:56.028Z,101316.00
2023-04-17T10:25:25.298Z,101311.00
2023-04-17T10:28:02.456Z,101313.00
2023-04-17T10:31:04.749Z,101317.00
2023-04-17T10:33:31.667Z,101315.00
2023-04-17T10:35:58.557Z,101313.00
2023-04-17T10:38:34.272Z,101314.00
2023-04-17T10:41:04.214Z,101303.00
2023-04-17T10:43:35.074Z,101309.00
2023-04-17T10:46:05.501Z,101310.00
2023-04-17T10:48:47.039Z,101312.00
2023-04-17T10:51:23.068Z,101314.00
2023-04-17T10:53:54.331Z,101313.00
2023-04-17T10:56:47.303Z,101312.00
2023-04-17T10:59:19.174Z,101317.00
2023-04-17T11:01:48.974Z,101312.00
2023-04-17T11:04:32.026Z,101337.00
2023-04-17T11:07:01.080Z,101313.00
2023-04-17T11:09:29.687Z,101319.00
2023-04-17T11:12:01.816Z,101320.00
2023-04-17T11:14:30.428Z,101330.00
2023-04-17T11:16:57.754Z,101329.00
2023-04-17T11:19:25.890Z,101321.00
2023-04-17T11:21:58.476Z,101235.00
2023-04-17T11:24:28.401Z,101327.00
2023-04-17T11:27:01.940Z,101324.00
2023-04-17T11:29:29.628Z,101324.00
2023-04-17T11:31:58.759Z,101342.00
2023-04-17T11:34:29.569Z,101218.00
2023-04-17T11:37:00.235Z,101331.00
2023-04-17T11:39:30.890Z,101334.00
2023-04-17T11:41:58.527Z,101309.00
2023-04-17T11:44:26.334Z,101330.00
2023-04-17T11:46:56.566Z,101330.00
2023-04-17T11:49:31.834Z,101331.00
2023-04-17T11:52:04.419Z,101330.00
2023-04-17T11:54:37.596Z,101333.00
2023-04-17T11:57:05.278Z,101328.00
2023-04-17T11:59:34.091Z,101328.00
2023-04-17T12:02:02.301Z,101321.00
2023-04-17T12:04:33.452Z,101333.00
2023-04-17T12:07:08.891Z,101335.00
2023-04-17T12:09:36.625Z,101338.00
2023-04-17T12:12:08.297Z,101337.00
2023-04-17T12:14:35.378Z,101332.00
2023-04-17T12:17:02.332Z,101338.00
2023-04-17T12:19:31.615Z,101329.00
2023-04-17T12:21:59.503Z,101346.00
2023-04-17T12:24:26.593Z,101342.00
2023-04-17T12:26:53.583Z,101342.00
2023-04-17T12:29:32.218Z,101320.00
2023-04-17T12:32:07.834Z,101330.00
2023-04-17T12:34:34.940Z,101340.00
2023-04-17T12:37:01.847Z,101335.00
2023-04-17T12:39:28.845Z,101333.00
2023-04-17T12:41:56.314Z,101335.00
2023-04-17T12:44:23.253Z,101342.00
2023-04-17T12:46:50.235Z,101338.00
2023-04-17T12:49:17.150Z,101343.00
2023-04-17T12:51:44.029Z,101342.00
2023-04-17T12:54:11.318Z,101343.00
2023-04-17T12:56:38.619Z,101301.00
2023-04-17T12:59:05.537Z,101344.00
2023-04-17T13:01:32.565Z,101347.00
2023-04-17T13:03:59.696Z,101343.00
2023-04-17T13:06:28.175Z,101348.00
2023-04-17T13:08:55.271Z,101349.00
2023-04-17T13:11:22.171Z,101348.00
2023-04-17T13:13:49.144Z,101341.00
2023-04-17T13:16:16.194Z,101337.00
2023-04-17T13:18:43.514Z,101348.00
2023-04-17T13:21:11.854Z,101348.00
2023-04-17T13:23:38.750Z,101350.00
2023-04-17T13:26:05.790Z,101341.00
2023-04-17T13:28:32.806Z,101352.00
2023-04-17T13:30:59.761Z,101342.00
2023-04-17T13:33:26.715Z,101356.00
2023-04-17T13:35:53.999Z,101348.00
2023-04-17T13:38:20.916Z,101352.00
2023-04-17T13:40:47.925Z,101370.00
2023-04-17T13:43:14.779Z,101364.00
2023-04-17T13:45:41.882Z,101363.00
2023-04-17T13:48:09.005Z,101359.00
2023-04-17T13:50:35.951Z,101348.00
2023-04-17T13:53:03.016Z,101364.00
2023-04-17T13:55:29.985Z,101364.00
2023-04-17T13:57:57.686Z,101337.00
2023-04-17T14:00:24.735Z,101364.00
2023-04-17T14:02:51.783Z,101364.00
2023-04-17T14:05:18.939Z,101362.00
2023-04-17T14:07:45.852Z,101363.00
2023-04-17T14:10:12.764Z,101371.00
2023-04-17T14:12:39.622Z,101361.00
2023-04-17T14:15:08.118Z,101371.00
2023-04-17T14:17:38.107Z,101359.00
2023-04-17T14:20:06.393Z,101359.00
2023-04-17T14:22:33.318Z,101366.00
2023-04-17T14:25:00.256Z,101364.00
2023-04-17T14:27:27.368Z,101361.00
2023-04-17T14:29:54.322Z,101366.00
2023-04-17T14:32:21.315Z,101360.00
2023-04-17T14:34:48.222Z,101365.00
2023-04-17T14:37:15.422Z,101372.00
2023-04-17T14:39:42.347Z,101364.00
2023-04-17T14:42:09.305Z,101362.00
2023-04-17T14:44:36.247Z,101358.00
2023-04-17T14:47:03.287Z,101355.00
2023-04-17T14:49:30.575Z,101337.00
2023-04-17T14:51:57.480Z,101364.00
2023-04-17T14:54:24.422Z,101379.00
2023-04-17T14:56:53.512Z,101369.00
2023-04-17T14:59:21.772Z,101366.00
2023-04-17T15:01:48.876Z,101371.00
2023-04-17T15:04:16.125Z,101371.00
2023-04-17T15:06:43.325Z,101370.00
2023-04-17T15:09:10.856Z,101369.00
2023-04-17T15:11:39.783Z,101384.00
2023-04-17T15:14:06.896Z,101365.00
2023-04-17T15:16:34.039Z,101368.00
2023-04-17T15:19:01.017Z,101377.00
2023-04-17T15:21:27.936Z,101376.00
2023-04-17T15:23:54.866Z,101380.00
2023-04-17T15:26:21.799Z,101363.00
2023-04-17T15:28:48.862Z,101371.00
2023-04-17T15:31:15.885Z,101370.00
2023-04-17T15:33:42.811Z,101376.00
2023-04-17T15:36:09.892Z,101386.00
2023-04-17T15:38:36.796Z,101380.00
2023-04-17T15:41:04.168Z,101381.00
2023-04-17T15:43:31.476Z,101374.00
2023-04-17T15:45:59.838Z,101383.00
2023-04-17T15:48:27.633Z,101383.00
2023-04-17T15:50:54.557Z,101381.00
2023-04-17T15:53:21.873Z,101395.00
2023-04-17T15:55:49.064Z,101385.00
2023-04-17T15:58:16.620Z,101388.00
2023-04-17T16:00:43.614Z,101390.00
2023-04-17T16:03:10.638Z,101387.00
2023-04-17T16:05:37.648Z,101389.00
2023-04-17T16:08:04.684Z,101389.00
2023-04-17T16:10:31.559Z,101388.00
2023-04-17T16:13:02.001Z,101403.00
2023-04-17T16:15:29.070Z,101390.00
2023-04-17T16:17:56.014Z,101400.00
2023-04-17T16:20:23.234Z,101400.00
2023-04-17T16:22:50.215Z,101387.00
2023-04-17T16:25:18.626Z,101398.00
2023-04-17T16:27:47.206Z,101409.00
2023-04-17T16:30:14.250Z,101409.00
2023-04-17T16:32:41.188Z,101406.00
2023-04-17T16:35:11.122Z,101399.00
2023-04-17T16:37:38.022Z,101404.00
2023-04-17T16:40:05.875Z,101408.00
2023-04-17T16:42:33.038Z,101419.00
2023-04-17T16:45:03.205Z,101388.00
2023-04-17T16:47:30.681Z,101390.00
2023-04-17T16:49:57.688Z,101419.00
2023-04-17T16:52:24.762Z,101427.00
2023-04-17T16:54:51.724Z,101424.00
2023-04-17T16:57:18.675Z,101428.00
2023-04-17T16:59:47.290Z,101428.00
2023-04-17T17:02:14.336Z,101430.00
2023-04-17T17:04:44.896Z,101425.00
2023-04-17T17:07:12.151Z,101418.00
2023-04-17T17:09:39.102Z,101429.00
2023-04-17T17:12:06.852Z,101429.00
2023-04-17T17:14:33.952Z,101424.00
2023-04-17T17:17:01.269Z,101425.00
2023-04-17T17:19:28.434Z,101427.00
2023-04-17T17:21:55.443Z,101431.00
2023-04-17T17:24:22.465Z,101426.00
2023-04-17T17:26:49.416Z,101431.00
2023-04-17T17:29:16.486Z,101424.00
2023-04-17T17:31:43.673Z,101427.00
2023-04-17T17:34:25.130Z,101431.00
2023-04-17T17:36:53.389Z,101432.00
2023-04-17T17:39:22.019Z,101427.00
2023-04-17T17:41:49.567Z,101405.00
2023-04-17T17:44:16.565Z,101421.00
2023-04-17T17:46:43.664Z,101432.00
2023-04-17T17:49:10.849Z,101437.00
2023-04-17T17:51:39.220Z,101439.00
2023-04-17T17:54:08.516Z,101438.00
2023-04-17T17:56:35.495Z,101439.00
2023-04-17T17:59:04.659Z,101436.00
2023-04-17T18:01:31.608Z,101433.00
2023-04-17T18:03:58.840Z,101443.00
2023-04-17T18:06:27.796Z,101436.00
2023-04-17T18:08:54.762Z,101443.00
2023-04-17T18:11:21.703Z,101436.00
2023-04-17T18:13:48.600Z,101432.00
2023-04-17T18:16:15.633Z,101440.00
2023-04-17T18:18:42.598Z,101429.00
2023-04-17T18:21:11.155Z,101403.00
2023-04-17T18:23:38.134Z,101439.00
2023-04-17T18:26:05.152Z,101437.00
2023-04-17T18:28:33.207Z,101448.00
2023-04-17T18:31:00.154Z,101441.00
2023-04-17T18:33:28.786Z,101438.00
2023-04-17T18:35:55.750Z,101414.00
2023-04-17T18:38:22.747Z,101441.00
2023-04-17T18:40:57.310Z,101414.00
2023-04-17T18:43:24.260Z,101444.00
2023-04-17T18:45:51.252Z,101444.00
2023-04-17T18:48:18.322Z,101451.00
2023-04-17T18:50:46.744Z,101446.00
2023-04-17T18:53:13.656Z,101446.00
2023-04-17T18:55:40.663Z,101452.00
2023-04-17T18:58:07.554Z,101454.00
2023-04-17T19:00:34.559Z,101443.00
2023-04-17T19:03:01.549Z,101452.00
2023-04-17T19:05:28.590Z,101450.00
2023-04-17T19:07:55.743Z,101451.00
2023-04-17T19:10:23.067Z,101457.00
2023-04-17T19:12:50.447Z,101448.00
2023-04-17T19:15:18.054Z,101437.00
2023-04-17T19:17:45.101Z,101449.00
2023-04-17T19:20:12.289Z,101447.00
2023-04-17T19:22:39.225Z,101451.00
2023-04-17T19:25:06.685Z,101453.00
2023-04-17T19:27:33.641Z,101415.00
2023-04-17T19:30:00.585Z,101448.00
2023-04-17T19:32:28.284Z,101452.00
2023-04-17T19:34:56.354Z,101460.00
2023-04-17T19:37:23.306Z,101453.00
2023-04-17T19:39:52.782Z,101461.00
2023-04-17T19:42:23.071Z,101445.00
2023-04-17T19:44:50.317Z,101457.00
2023-04-17T19:47:17.219Z,101447.00
2023-04-17T19:49:44.947Z,101466.00
2023-04-17T19:52:12.324Z,101461.00
2023-04-17T19:54:39.410Z,101457.00
2023-04-17T19:57:06.479Z,101461.00
2023-04-17T19:59:33.398Z,101468.00
2023-04-17T20:02:00.361Z,101466.00
2023-04-17T20:04:27.453Z,101466.00
2023-04-17T20:06:54.584Z,101474.00
2023-04-17T20:09:21.708Z,101467.00
2023-04-17T20:11:48.642Z,101472.00
2023-04-17T20:14:15.780Z,101473.00
2023-04-17T20:16:45.223Z,101473.00
2023-04-17T20:19:13.315Z,101470.00
2023-04-17T20:21:40.648Z,101470.00
2023-04-17T20:24:07.780Z,101476.00
2023-04-17T20:26:37.141Z,101478.00
2023-04-17T20:29:04.503Z,101486.00
2023-04-17T20:31:33.937Z,101474.00
2023-04-17T20:34:00.931Z,101486.00
2023-04-17T20:36:28.224Z,101472.00
2023-04-17T20:38:55.333Z,101472.00
2023-04-17T20:41:22.389Z,101469.00
2023-04-17T20:44:02.172Z,101469.00
2023-04-17T20:46:29.805Z,101463.00
2023-04-17T20:48:56.754Z,101469.00
2023-04-17T20:51:26.372Z,101464.00
2023-04-17T20:53:54.434Z,101463.00
2023-04-17T20:56:22.114Z,101465.00
2023-04-17T20:58:49.089Z,101462.00
2023-04-17T21:01:16.852Z,101466.00
2023-04-17T21:03:44.190Z,101461.00
2023-04-17T21:06:11.303Z,101456.00
2023-04-17T21:08:38.330Z,101456.00
2023-04-17T21:11:05.400Z,101456.00
2023-04-17T21:13:32.387Z,101461.00
2023-04-17T21:15:59.332Z,101461.00
2023-04-17T21:18:26.267Z,101461.00
2023-04-17T21:20:53.213Z,101449.00
2023-04-17T21:23:20.517Z,101460.00
2023-04-17T21:25:50.472Z,101462.00
2023-04-17T21:28:17.421Z,101461.00
2023-04-17T21:30:44.343Z,101465.00
2023-04-17T21:33:11.234Z,101468.00
2023-04-17T21:35:39.180Z,101461.00
2023-04-17T21:38:06.059Z,101465.00
2023-04-17T21:40:33.673Z,101470.00
2023-04-17T21:43:01.403Z,101467.00
2023-04-17T21:45:28.398Z,101464.00
2023-04-17T21:47:55.314Z,101460.00
2023-04-17T21:50:22.402Z,101466.00
2023-04-17T21:52:49.330Z,101466.00
2023-04-17T21:55:16.247Z,101459.00
2023-04-17T21:57:43.219Z,101468.00
2023-04-17T22:00:12.530Z,101458.00
2023-04-17T22:02:39.546Z,101464.00
2023-04-17T22:05:06.857Z,101459.00
2023-04-17T22:07:40.738Z,101460.00
2023-04-17T22:10:11.327Z,101453.00
2023-04-17T22:12:38.266Z,101465.00
2023-04-17T22:15:05.998Z,101453.00
2023-04-17T22:17:33.032Z,101456.00
2023-04-17T22:19:59.983Z,101464.00
2023-04-17T22:22:26.899Z,101459.00
2023-04-17T22:24:53.832Z,101469.00
2023-04-17T22:27:20.683Z,101469.00
2023-04-17T22:29:47.622Z,101474.00
2023-04-17T22:32:14.520Z,101475.00
2023-04-17T22:34:42.530Z,101469.00
2023-04-17T22:37:09.539Z,101465.00
2023-04-17T22:39:36.420Z,101472.00
2023-04-17T22:42:03.319Z,101472.00
2023-04-17T22:44:30.275Z,101475.00
2023-04-17T22:46:57.286Z,101452.00
2023-04-17T22:49:24.353Z,101470.00
2023-04-17T22:51:51.517Z,101470.00
2023-04-17T22:54:22.641Z,101482.00
2023-04-17T22:56:50.103Z,101474.00
2023-04-17T22:59:16.955Z,101477.00
2023-04-17T23:01:43.981Z,101483.00
2023-04-17T23:04:11.009Z,101482.00
2023-04-17T23:06:38.023Z,101473.00
2023-04-17T23:09:05.148Z,101478.00
2023-04-17T23:11:33.368Z,101474.00
2023-04-17T23:14:02.763Z,101476.00
2023-04-17T23:16:30.403Z,101477.00
2023-04-17T23:18:57.349Z,101475.00
2023-04-17T23:21:27.641Z,101481.00
2023-04-17T23:23:56.066Z,101479.00
2023-04-17T23:26:23.170Z,101470.00
2023-04-17T23:28:50.023Z,101473.00
2023-04-17T23:31:16.955Z,101474.00
2023-04-17T23:33:43.861Z,101471.00
2023-04-17T23:36:11.421Z,101466.00
2023-04-17T23:38:38.387Z,101471.00
2023-04-17T23:41:05.656Z,101469.00
2023-04-17T23:43:32.518Z,101473.00
2023-04-17T23:46:00.787Z,101471.00
2023-04-17T23:48:28.177Z,101471.00
2023-04-17T23:50:55.304Z,101476.00
2023-04-17T23:53:22.210Z,101471.00
2023-04-17T23:55:49.059Z,101471.00
2023-04-17T23:58:16.005Z,101477.00
